»·PEaware :: WAT169 KLAS-KSAN

WAT169 :: KLAS-KSAN

FLIGHT INFORMATION

Flight Status: Arrived
Operator:
Walker Air Transport
More flights by this operator :: More flights under this callsign
Pilot: Marty P. (27464)
Aircraft: BOEING 737-800
(B738)
More flights by this aircraft type
Origin: KLAS McCarran Intl
United States
Destination: KSAN San Diego Intl-Lindbergh
United States
More flights between these airports :: More routes between these airports
Route: BOACH8 LVELL LUCKI1
File this flight plan on PilotEdge
Remarks:
Altitude:
(Current/Filed)
28,000ft
Speed:
(Current/Filed)
480kts
Departed: 28-Aug-20 12:38 PM
Arrived: 28-Aug-20 01:21 PM
Distance/Time
Traveled:
225nm/0:42
Distance/Time
To Go:
Arrived

Flight Plot

Page will automatically refresh every two minutes.

Flight plan parsing failed; only flown route is shown


Map Options




Map Legend


Flown Route
Filed Route
Departure Airport
Arrival Airport
Navaid (VOR, NDB)
Fix

Horizontal Profiles

Position Reports

Time Latitude Longitude Heading Altitude Ground
Speed
28-Aug-20 12:12 36.080318 -115.147297 66 2191ft 0kts
28-Aug-20 12:13 36.080318 -115.147297 66 2191ft 0kts
28-Aug-20 12:14 36.080318 -115.147297 66 2191ft 0kts
28-Aug-20 12:15 36.080318 -115.147297 66 2191ft 0kts
28-Aug-20 12:16 36.080318 -115.147297 66 2191ft 0kts
28-Aug-20 12:17 36.080318 -115.147297 66 2191ft 0kts
28-Aug-20 12:18 36.080318 -115.147297 66 2191ft 0kts
28-Aug-20 12:19 36.080318 -115.147297 66 2191ft 0kts
28-Aug-20 12:20 36.080318 -115.147297 66 2191ft 0kts
28-Aug-20 12:21 36.080318 -115.147297 66 2191ft 0kts
28-Aug-20 12:22 36.080318 -115.147297 66 2191ft 0kts
28-Aug-20 12:23 36.080318 -115.147297 66 2191ft 0kts
28-Aug-20 12:24 36.080318 -115.147297 66 2191ft 0kts
28-Aug-20 12:25 36.080318 -115.147297 66 2191ft 0kts
28-Aug-20 12:26 36.080318 -115.147297 66 2191ft 0kts
28-Aug-20 12:27 36.080318 -115.147297 66 2191ft 0kts
28-Aug-20 12:28 36.080249 -115.147844 107 2191ft 2kts
28-Aug-20 12:29 36.080073 -115.147922 156 2191ft 7kts
28-Aug-20 12:30 36.079284 -115.147490 155 2191ft 0kts
28-Aug-20 12:31 36.079284 -115.147490 155 2191ft 0kts
28-Aug-20 12:32 36.077978 -115.147498 231 2191ft 12kts
28-Aug-20 12:33 36.078039 -115.154167 269 2191ft 17kts
28-Aug-20 12:34 36.078032 -115.159426 269 2191ft 12kts
28-Aug-20 12:35 36.077431 -115.161262 184 2191ft 0kts
28-Aug-20 12:36 36.077290 -115.161272 181 2191ft 5kts
28-Aug-20 12:37 36.076400 -115.146304 89 2191ft 148kts
28-Aug-20 12:38 36.076124 -115.077443 86 3762ft 244kts
28-Aug-20 12:39 36.069405 -114.985099 114 7322ft 282kts
28-Aug-20 12:40 36.011558 -114.922666 166 10822ft 296kts
28-Aug-20 12:41 35.923188 -114.949165 219 12169ft 371kts
28-Aug-20 12:42 35.847415 -115.041824 224 14997ft 390kts
28-Aug-20 12:43 35.774582 -115.145938 230 17450ft 409kts
28-Aug-20 12:44 35.698310 -115.254247 216 19747ft 421kts
28-Aug-20 12:45 35.586871 -115.297899 183 21849ft 433kts
28-Aug-20 12:46 35.464324 -115.303112 183 23731ft 442kts
28-Aug-20 12:47 35.339380 -115.308097 183 25442ft 451kts
28-Aug-20 12:48 35.212476 -115.313117 184 26979ft 458kts
28-Aug-20 12:49 35.082942 -115.318235 184 27873ft 476kts
28-Aug-20 12:50 34.945806 -115.323623 184 27853ft 501kts
28-Aug-20 12:51 34.803962 -115.331789 192 27847ft 510kts
28-Aug-20 12:52 34.667325 -115.382474 200 27878ft 513kts
28-Aug-20 12:53 34.532030 -115.440367 200 28002ft 512kts
28-Aug-20 12:54 34.396902 -115.499004 201 28009ft 512kts
28-Aug-20 12:55 34.268642 -115.575474 210 28009ft 511kts
28-Aug-20 12:56 34.138264 -115.646243 203 28010ft 511kts
28-Aug-20 12:57 34.006029 -115.710729 202 27920ft 512kts
28-Aug-20 12:58 33.872530 -115.774725 202 27762ft 512kts
28-Aug-20 12:59 33.740370 -115.839423 202 27755ft 492kts
28-Aug-20 13:00 33.623815 -115.893807 202 27768ft 421kts
28-Aug-20 13:01 33.520617 -115.961062 223 25830ft 419kts
28-Aug-20 13:02 33.446002 -116.068790 232 24488ft 420kts
28-Aug-20 13:03 33.378527 -116.181147 233 21792ft 407kts
28-Aug-20 13:04 33.298629 -116.271940 208 19139ft 392kts
28-Aug-20 13:06 33.204067 -116.328318 206 17723ft 365kts
28-Aug-20 13:07 33.108527 -116.384236 205 15382ft 375kts
28-Aug-20 13:08 33.019229 -116.439480 209 13895ft 335kts
28-Aug-20 13:09 32.948253 -116.508980 219 12083ft 325kts
28-Aug-20 13:10 32.879448 -116.576481 217 10399ft 306kts
28-Aug-20 13:11 32.818808 -116.635299 219 9532ft 271kts
28-Aug-20 13:12 32.764718 -116.698294 237 8103ft 272kts
28-Aug-20 13:13 32.726974 -116.777014 240 6706ft 272kts
28-Aug-20 13:14 32.694860 -116.857454 250 5282ft 258kts
28-Aug-20 13:15 32.675483 -116.935169 268 4293ft 232kts
28-Aug-20 13:16 32.687486 -117.000902 286 3357ft 163kts
28-Aug-20 13:17 32.699509 -117.049856 286 2492ft 150kts
28-Aug-20 13:18 32.711032 -117.097064 287 1582ft 145kts
28-Aug-20 13:19 32.722085 -117.142432 287 694ft 142kts
28-Aug-20 13:20 32.732803 -117.186542 285 28ft 113kts
28-Aug-20 13:20 32.734143 -117.195359 252 27ft 1kts
28-Aug-20 13:22 32.734205 -117.199708 250 27ft 2kts

Navigation Log

Ident Type
Flight plan parsing failed, navigation log unavailable